createdAt,value
2023-04-28T00:04:30.703Z,8.42
2023-04-28T00:09:34.634Z,8.37
2023-04-28T00:14:38.760Z,8.39
2023-04-28T00:19:42.991Z,8.22
2023-04-28T00:24:47.122Z,8.18
2023-04-28T00:29:51.277Z,8.14
2023-04-28T00:34:55.447Z,8.13
2023-04-28T00:39:59.573Z,8.08
2023-04-28T00:45:03.779Z,8.03
2023-04-28T00:50:07.920Z,8.06
2023-04-28T00:55:12.095Z,8.05
2023-04-28T01:00:16.236Z,8.04
2023-04-28T01:05:20.425Z,7.98
2023-04-28T01:10:24.541Z,7.97
2023-04-28T01:15:28.718Z,7.93
2023-04-28T01:20:32.917Z,7.93
2023-04-28T01:25:35.170Z,7.96
2023-04-28T01:30:39.334Z,7.88
2023-04-28T01:35:41.609Z,7.83
2023-04-28T01:40:45.735Z,7.79
2023-04-28T01:45:49.949Z,7.88
2023-04-28T01:50:54.087Z,7.89
2023-04-28T01:55:58.570Z,7.83
2023-04-28T02:01:02.427Z,7.85
2023-04-28T02:06:06.575Z,7.83
2023-04-28T02:11:10.707Z,7.75
2023-04-28T02:21:19.114Z,7.79
2023-04-28T02:26:23.230Z,7.82
2023-04-28T02:31:27.430Z,7.84
2023-04-28T02:36:31.538Z,7.86
2023-04-28T02:41:35.698Z,7.86
2023-04-28T02:46:39.865Z,7.83
2023-04-28T02:51:43.991Z,7.84
2023-04-28T02:56:48.211Z,7.87
2023-04-28T03:01:52.326Z,7.91
2023-04-28T03:06:56.534Z,7.95
2023-04-28T03:12:00.660Z,7.99
2023-04-28T03:17:04.842Z,8.04
2023-04-28T03:22:08.991Z,8.08
2023-04-28T03:32:15.485Z,8.18
2023-04-28T03:37:17.742Z,8.22
2023-04-28T03:42:21.832Z,8.24
2023-04-28T03:47:26.051Z,8.26
2023-04-28T03:52:28.321Z,8.27
2023-04-28T03:57:32.475Z,8.32
2023-04-28T04:02:36.726Z,8.39
2023-04-28T04:07:40.806Z,8.44
2023-04-28T04:12:44.947Z,8.57
2023-04-28T04:17:49.204Z,8.62
2023-04-28T04:22:53.242Z,8.69
2023-04-28T04:27:57.377Z,8.76
2023-04-28T04:33:01.604Z,8.79
2023-04-28T04:38:05.779Z,8.86
2023-04-28T04:43:09.953Z,8.88
2023-04-28T04:48:14.130Z,8.93
2023-04-28T04:53:18.210Z,9.00
2023-04-28T04:58:22.417Z,9.05
2023-04-28T05:03:26.602Z,9.12
2023-04-28T05:08:30.687Z,9.16
2023-04-28T05:13:34.866Z,9.21
2023-04-28T05:18:39.010Z,9.23
2023-04-28T05:23:43.215Z,9.25
2023-04-28T05:28:47.372Z,9.25
2023-04-28T05:33:51.529Z,9.32
2023-04-28T05:38:53.778Z,9.36
2023-04-28T05:43:58.001Z,9.31
2023-04-28T05:54:06.282Z,9.52
2023-04-28T05:59:10.472Z,9.61
2023-04-28T06:04:14.855Z,9.63
2023-04-28T06:09:18.969Z,9.58
2023-04-28T06:14:22.918Z,9.61
2023-04-28T06:19:27.121Z,9.72
2023-04-28T06:24:31.232Z,9.74
2023-04-28T06:29:35.428Z,9.84
2023-04-28T06:34:39.571Z,9.94
2023-04-28T06:39:43.723Z,10.14
2023-04-28T06:44:47.898Z,10.40
2023-04-28T06:49:52.210Z,10.64
2023-04-28T06:54:56.201Z,10.84
2023-04-28T07:00:00.399Z,11.08
2023-04-28T07:05:04.607Z,11.25
2023-04-28T07:10:08.720Z,11.26
2023-04-28T07:15:13.015Z,11.34
2023-04-28T07:20:17.010Z,11.48
2023-04-28T07:25:21.188Z,11.80
2023-04-28T07:30:27.815Z,11.90
2023-04-28T07:35:27.652Z,12.04
2023-04-28T07:40:31.022Z,12.01
2023-04-28T07:45:35.300Z,12.00
2023-04-28T07:50:39.358Z,12.22
2023-04-28T07:55:43.486Z,12.50
2023-04-28T08:00:47.656Z,12.97
2023-04-28T08:05:51.869Z,13.19
2023-04-28T08:10:55.953Z,13.50
2023-04-28T08:16:00.161Z,13.50
2023-04-28T08:21:04.324Z,13.52
2023-04-28T08:26:08.410Z,13.71
2023-04-28T08:31:12.597Z,13.85
2023-04-28T08:36:16.747Z,14.01
2023-04-28T08:41:20.921Z,13.88
2023-04-28T08:46:25.174Z,13.89
2023-04-28T08:51:29.234Z,14.15
2023-04-28T08:56:33.442Z,14.42
2023-04-28T09:01:37.604Z,14.37
2023-04-28T09:06:41.700Z,14.29
2023-04-28T09:11:45.877Z,14.27
2023-04-28T09:16:50.067Z,14.15
2023-04-28T09:21:54.407Z,13.90
2023-04-28T09:26:56.496Z,13.93
2023-04-28T09:32:00.632Z,14.18
2023-04-28T09:37:04.853Z,14.43
2023-04-28T09:42:08.995Z,14.47
2023-04-28T09:47:13.120Z,14.60
2023-04-28T09:52:17.305Z,14.66
2023-04-28T09:57:21.456Z,14.67
2023-04-28T10:02:42.637Z,14.76
2023-04-28T10:07:29.867Z,14.67
2023-04-28T10:12:33.937Z,15.08
2023-04-28T10:17:42.721Z,15.54
2023-04-28T10:22:42.298Z,15.64
2023-04-28T10:27:46.379Z,15.73
2023-04-28T10:32:50.633Z,15.39
2023-04-28T10:37:54.769Z,15.29
2023-04-28T10:42:58.912Z,15.48
2023-04-28T10:48:03.102Z,15.55
2023-04-28T10:53:07.203Z,15.31
2023-04-28T10:58:11.330Z,15.17
2023-04-28T11:03:15.655Z,15.12
2023-04-28T11:08:19.794Z,14.89
2023-04-28T11:13:21.955Z,14.78
2023-04-28T11:18:26.135Z,14.56
2023-04-28T11:23:28.653Z,14.42
2023-04-28T11:28:32.546Z,14.31
2023-04-28T11:33:34.860Z,14.39
2023-04-28T11:38:38.952Z,14.39
2023-04-28T11:43:47.468Z,14.49
2023-04-28T11:48:47.328Z,14.54
2023-04-28T11:53:51.475Z,14.63
2023-04-28T11:58:55.654Z,14.65
2023-04-28T12:03:59.935Z,14.56
2023-04-28T12:09:03.925Z,14.43
2023-04-28T12:14:08.128Z,14.64
2023-04-28T12:19:12.260Z,14.99
2023-04-28T12:24:16.442Z,15.29
2023-04-28T12:29:20.597Z,15.37
2023-04-28T12:34:24.770Z,15.33
2023-04-28T12:39:28.889Z,15.44
2023-04-28T12:44:33.062Z,15.50
2023-04-28T12:49:37.201Z,15.44
2023-04-28T12:54:41.392Z,15.50
2023-04-28T12:59:45.730Z,15.90
2023-04-28T13:04:49.810Z,16.31
2023-04-28T13:09:53.861Z,16.78
2023-04-28T13:15:04.520Z,17.41
2023-04-28T13:20:00.325Z,17.30
2023-04-28T13:25:04.459Z,17.01
2023-04-28T13:30:06.769Z,17.51
2023-04-28T13:35:10.900Z,18.04
2023-04-28T13:40:15.047Z,18.57
2023-04-28T13:45:20.668Z,18.53
2023-04-28T13:50:23.361Z,18.23
2023-04-28T13:55:27.594Z,18.38
2023-04-28T14:00:31.684Z,18.64
2023-04-28T14:05:48.304Z,19.13
2023-04-28T14:10:39.980Z,18.89
2023-04-28T14:15:51.334Z,18.46
2023-04-28T14:20:48.325Z,18.11
2023-04-28T14:25:55.222Z,17.97
2023-04-28T14:30:56.769Z,17.98
2023-04-28T14:36:00.803Z,18.11
2023-04-28T14:41:04.964Z,18.48
2023-04-28T14:46:09.106Z,18.59
2023-04-28T14:51:13.272Z,18.93
2023-04-28T14:56:19.525Z,19.04
2023-04-28T15:01:21.575Z,19.21
2023-04-28T15:06:25.700Z,19.19
2023-04-28T15:11:29.900Z,18.70
2023-04-28T15:16:32.308Z,18.42
2023-04-28T15:21:36.300Z,18.41
2023-04-28T15:26:38.695Z,18.32
2023-04-28T15:31:42.746Z,18.48
2023-04-28T15:36:46.885Z,18.28
2023-04-28T15:41:51.028Z,18.04
2023-04-28T15:46:55.198Z,17.80
2023-04-28T15:51:59.387Z,17.64
2023-04-28T15:57:03.590Z,17.50
2023-04-28T16:02:07.761Z,17.23
2023-04-28T16:07:11.913Z,16.89
2023-04-28T16:12:16.053Z,16.50
2023-04-28T16:17:20.178Z,16.04
2023-04-28T16:22:24.346Z,15.77
2023-04-28T16:27:28.508Z,15.73
2023-04-28T16:32:32.693Z,15.67
2023-04-28T16:37:37.111Z,15.94
2023-04-28T16:42:40.998Z,16.28
2023-04-28T16:47:45.168Z,15.96
2023-04-28T16:52:49.306Z,15.89
2023-04-28T16:57:53.482Z,16.32
2023-04-28T17:02:57.780Z,15.93
2023-04-28T17:08:01.811Z,15.78
2023-04-28T17:13:04.017Z,15.72
2023-04-28T17:18:08.232Z,15.60
2023-04-28T17:23:12.400Z,15.41
2023-04-28T17:28:16.527Z,15.27
2023-04-28T17:33:20.680Z,15.18
2023-04-28T17:38:24.863Z,15.17
2023-04-28T17:43:29.027Z,15.09
2023-04-28T17:48:33.176Z,14.98
2023-04-28T17:53:37.338Z,14.94
2023-04-28T17:58:41.481Z,14.93
2023-04-28T18:03:45.639Z,14.81
2023-04-28T18:08:49.782Z,14.75
2023-04-28T18:13:53.989Z,14.67
2023-04-28T18:18:58.148Z,14.61
2023-04-28T18:24:02.341Z,14.52
2023-04-28T18:29:06.466Z,14.44
2023-04-28T18:34:10.631Z,14.37
2023-04-28T18:39:14.773Z,14.25
2023-04-28T18:44:18.944Z,14.19
2023-04-28T18:49:23.098Z,14.10
2023-04-28T18:54:28.079Z,13.94
2023-04-28T18:59:29.545Z,13.85
2023-04-28T19:04:33.741Z,13.77
2023-04-28T19:09:35.952Z,13.70
2023-04-28T19:14:40.134Z,13.65
2023-04-28T19:19:44.289Z,13.61
2023-04-28T19:24:46.604Z,13.55
2023-04-28T19:29:50.983Z,13.54
2023-04-28T19:34:54.942Z,13.52
2023-04-28T19:39:59.124Z,13.51
2023-04-28T19:45:03.172Z,13.50
2023-04-28T19:50:07.366Z,13.53
2023-04-28T19:55:11.535Z,13.52
2023-04-28T20:00:15.714Z,13.54
2023-04-28T20:05:19.861Z,13.49
2023-04-28T20:10:24.002Z,13.38
2023-04-28T20:15:28.166Z,13.33
2023-04-28T20:20:32.337Z,13.27
2023-04-28T20:25:36.474Z,13.29
2023-04-28T20:30:40.620Z,13.29
2023-04-28T20:35:44.879Z,13.30
2023-04-28T20:40:48.972Z,13.31
2023-04-28T20:45:53.229Z,13.33
2023-04-28T20:50:57.276Z,13.34
2023-04-28T20:56:01.445Z,13.33
2023-04-28T21:01:05.636Z,13.31
2023-04-28T21:06:09.764Z,13.29
2023-04-28T21:11:12.054Z,13.19
2023-04-28T21:16:18.470Z,13.11
2023-04-28T21:21:20.341Z,13.02
2023-04-28T21:26:24.525Z,12.98
2023-04-28T21:31:26.818Z,12.94
2023-04-28T21:36:30.969Z,12.92
2023-04-28T21:41:35.076Z,12.90
2023-04-28T21:46:39.259Z,12.88
2023-04-28T21:51:43.448Z,12.89
2023-04-28T21:56:47.574Z,12.87
2023-04-28T22:01:51.762Z,12.85
2023-04-28T22:06:55.893Z,12.84
2023-04-28T22:12:00.098Z,12.83
2023-04-28T22:17:04.542Z,12.79
2023-04-28T22:22:09.215Z,12.79
2023-04-28T22:27:12.596Z,12.79
2023-04-28T22:32:16.733Z,12.69
2023-04-28T22:37:20.816Z,12.64
2023-04-28T22:42:24.973Z,12.66
2023-04-28T22:47:29.151Z,12.61
2023-04-28T22:52:46.039Z,12.51
2023-04-28T22:57:37.452Z,12.23
2023-04-28T23:02:41.652Z,12.09
2023-04-28T23:07:45.745Z,12.01
2023-04-28T23:17:54.114Z,11.87
2023-04-28T23:22:56.399Z,11.78
2023-04-28T23:28:00.556Z,11.70
2023-04-28T23:33:02.817Z,11.68
2023-04-28T23:38:06.953Z,11.60
2023-04-28T23:43:11.115Z,11.56
2023-04-28T23:48:15.249Z,11.49
2023-04-28T23:53:19.401Z,11.43
2023-04-28T23:58:23.555Z,11.39
